Grande Portogallo — IBZW — position and weather

sailwx.info

Track history (hours):
 
Tides and Currents Weather Stations Pressure Air Temp Water Temp Dewpoint Dewpoint Depression Visibility Wind Speed Wind Dir Waves Ship Positions

Grande Portogallo

Last reported at 2016-Jun-25 19:31 UTC. Time now 2016-Jun-25 19:46 UTC.
Position N 38°28' E 015°55'.

Length 176 m; draft 8.8 m.

Type: Cargo ship. MMSI: 247065500.

Date/timePositionNaut miles runAvg speedWind from/ knotsBaromVisibWave heightAir tempDewpointWater temp
2016-Jun-25 19:31N 38°28' E 015°55'0 0.0
2016-Jun-25 18:31N 38°28' E 015°55'0 0.0
2016-Jun-25 17:31N 38°28' E 015°55'0 0.0
2016-Jun-25 16:13N 38°28' E 015°55'0 0.0
2016-Jun-25 15:31N 38°28' E 015°55'0 0.0
2016-Jun-25 14:31N 38°28' E 015°55'0 0.0
2016-Jun-25 13:31N 38°28' E 015°55'0 0.0
2016-Jun-25 12:28N 38°28' E 015°55'0 0.0
2016-Jun-25 11:31N 38°28' E 015°55'3 3.5
2016-Jun-25 10:33N 38°27' E 015°51'3 2.8
2016-Jun-25 09:33N 38°25' E 015°49'9 8.9
2016-Jun-25 08:33N 38°17' E 015°43'1212.1
2016-Jun-25 07:33N 38°06' E 015°36'1413.7
2016-Jun-25 06:34N 37°53' E 015°42'40313.9
2016-Jun-24 01:30N 37°17' E 024°09'3015.3
2016-Jun-23 23:34N 37°42' E 024°30'27113.9
2016-Jun-23 04:06N 40°42' E 028°52'815.4
2016-Jun-23 03:33N 40°43' E 029°03'1514.4
2016-Jun-23 02:31N 40°44' E 029°22'13 1.3
2016-Jun-22 16:27N 40°44' E 029°39'1112.4
2016-Jun-22 15:33N 40°44' E 029°25'1111.3
2016-Jun-22 14:33N 40°42' E 029°10'17 5.4
2016-Jun-22 11:24N 40°26' E 029°04'3 0.1
2016-Jun-21 04:32N 40°26' E 029°01'0 0.3
2016-Jun-21 03:03N 40°26' E 029°00'0 0.2
2016-Jun-21 00:33N 40°26' E 029°00'8610.6
2016-Jun-20 16:25N 40°33' E 027°07'5213.4
2016-Jun-20 12:31N 40°01' E 026°13'1111.3
2016-Jun-20 11:32N 39°57' E 025°59'1414.2
2016-Jun-20 10:33N 39°45' E 025°50'1514.7
2016-Jun-20 09:33N 39°31' E 025°45'1615.2
2016-Jun-20 08:30N 39°15' E 025°44'10615.2
2016-Jun-20 01:32N 37°29' E 025°51'44314.3
2016-Jun-18 18:33N 35°45' E 034°47'1515.7
2016-Jun-18 17:33N 35°39' E 035°05'1616.1
2016-Jun-18 16:33N 35°33' E 035°23'1615.6
2016-Jun-18 15:33N 35°32' E 035°42'3 0.8
2016-Jun-18 11:25N 35°31' E 035°46'4 5.2
2016-Jun-18 10:33N 35°32' E 035°41'9 9.2
2016-Jun-18 09:33N 35°31' E 035°30'1110.3
2016-Jun-18 08:32N 35°40' E 035°23'76 2.6
2016-Jun-17 03:15N 34°27' E 035°49'126 4.5
2016-Jun-15 23:22N 34°02' E 033°20'1314.7
2016-Jun-15 22:28N 34°03' E 033°04'1514.9
2016-Jun-15 21:27N 34°05' E 032°46'  
Track history (hours):
 
Tides and Currents Weather Stations Pressure Air Temp Water Temp Dewpoint Dewpoint Depression Visibility Wind Speed Wind Dir Waves Ship Positions

Grande Portogallo

Last reported at 2016-Jun-25 19:31 UTC. Time now 2016-Jun-25 19:46 UTC.
Position N 38°28' E 015°55'.

Length 176 m; draft 8.8 m.

Type: Cargo ship. MMSI: 247065500.

Date/timePositionNaut miles runAvg speedWind from/ knotsBaromVisibWave heightAir tempDewpointWater temp
2016-Jun-25 19:31N 38°28' E 015°55'0 0.0
2016-Jun-25 18:31N 38°28' E 015°55'0 0.0
2016-Jun-25 17:31N 38°28' E 015°55'0 0.0
2016-Jun-25 16:13N 38°28' E 015°55'0 0.0
2016-Jun-25 15:31N 38°28' E 015°55'0 0.0
2016-Jun-25 14:31N 38°28' E 015°55'0 0.0
2016-Jun-25 13:31N 38°28' E 015°55'0 0.0
2016-Jun-25 12:28N 38°28' E 015°55'0 0.0
2016-Jun-25 11:31N 38°28' E 015°55'3 3.5
2016-Jun-25 10:33N 38°27' E 015°51'3 2.8
2016-Jun-25 09:33N 38°25' E 015°49'9 8.9
2016-Jun-25 08:33N 38°17' E 015°43'1212.1
2016-Jun-25 07:33N 38°06' E 015°36'1413.7
2016-Jun-25 06:34N 37°53' E 015°42'40313.9
2016-Jun-24 01:30N 37°17' E 024°09'3015.3
2016-Jun-23 23:34N 37°42' E 024°30'27113.9
2016-Jun-23 04:06N 40°42' E 028°52'815.4
2016-Jun-23 03:33N 40°43' E 029°03'1514.4
2016-Jun-23 02:31N 40°44' E 029°22'13 1.3
2016-Jun-22 16:27N 40°44' E 029°39'1112.4
2016-Jun-22 15:33N 40°44' E 029°25'1111.3
2016-Jun-22 14:33N 40°42' E 029°10'17 5.4
2016-Jun-22 11:24N 40°26' E 029°04'3 0.1
2016-Jun-21 04:32N 40°26' E 029°01'0 0.3
2016-Jun-21 03:03N 40°26' E 029°00'0 0.2
2016-Jun-21 00:33N 40°26' E 029°00'8610.6
2016-Jun-20 16:25N 40°33' E 027°07'5213.4
2016-Jun-20 12:31N 40°01' E 026°13'1111.3
2016-Jun-20 11:32N 39°57' E 025°59'1414.2
2016-Jun-20 10:33N 39°45' E 025°50'1514.7
2016-Jun-20 09:33N 39°31' E 025°45'1615.2
2016-Jun-20 08:30N 39°15' E 025°44'10615.2
2016-Jun-20 01:32N 37°29' E 025°51'44314.3
2016-Jun-18 18:33N 35°45' E 034°47'1515.7
2016-Jun-18 17:33N 35°39' E 035°05'1616.1
2016-Jun-18 16:33N 35°33' E 035°23'1615.6
2016-Jun-18 15:33N 35°32' E 035°42'3 0.8
2016-Jun-18 11:25N 35°31' E 035°46'4 5.2
2016-Jun-18 10:33N 35°32' E 035°41'9 9.2
2016-Jun-18 09:33N 35°31' E 035°30'1110.3
2016-Jun-18 08:32N 35°40' E 035°23'76 2.6
2016-Jun-17 03:15N 34°27' E 035°49'126 4.5
2016-Jun-15 23:22N 34°02' E 033°20'1314.7
2016-Jun-15 22:28N 34°03' E 033°04'1514.9
2016-Jun-15 21:27N 34°05' E 032°46'  

Dump ship's entire track history